createdAt,value
2023-03-03T00:01:57.663Z,36.40
2023-03-03T00:04:25.723Z,36.80
2023-03-03T00:06:53.714Z,35.70
2023-03-03T00:09:22.191Z,36.20
2023-03-03T00:11:51.721Z,36.90
2023-03-03T00:14:29.782Z,36.50
2023-03-03T00:17:02.088Z,36.90
2023-03-03T00:19:37.697Z,36.80
2023-03-03T00:22:15.905Z,36.40
2023-03-03T00:24:43.955Z,35.70
2023-03-03T00:27:18.101Z,36.10
2023-03-03T00:29:48.206Z,35.70
2023-03-03T00:32:23.250Z,35.30
2023-03-03T00:34:51.842Z,35.60
2023-03-03T00:37:23.496Z,36.40
2023-03-03T00:39:51.540Z,36.40
2023-03-03T00:42:20.187Z,37.70
2023-03-03T00:44:48.629Z,37.90
2023-03-03T00:47:31.164Z,38.20
2023-03-03T00:50:18.532Z,38.80
2023-03-03T00:52:47.946Z,38.70
2023-03-03T00:55:15.879Z,38.20
2023-03-03T00:57:43.871Z,39.10
2023-03-03T01:00:14.248Z,38.40
2023-03-03T01:02:46.525Z,38.30
2023-03-03T01:05:18.092Z,38.20
2023-03-03T01:07:46.092Z,38.00
2023-03-03T01:10:14.079Z,37.30
2023-03-03T01:12:42.062Z,37.50
2023-03-03T01:15:11.503Z,36.90
2023-03-03T01:17:40.601Z,36.30
2023-03-03T01:20:12.750Z,36.40
2023-03-03T01:22:41.174Z,36.90
2023-03-03T01:25:11.263Z,36.70
2023-03-03T01:27:39.280Z,36.70
2023-03-03T01:30:08.425Z,38.00
2023-03-03T01:32:36.486Z,37.60
2023-03-03T01:35:04.601Z,37.10
2023-03-03T01:37:35.082Z,37.30
2023-03-03T01:40:04.594Z,38.80
2023-03-03T01:42:32.601Z,40.00
2023-03-03T01:45:25.014Z,40.00
2023-03-03T01:47:54.946Z,40.10
2023-03-03T01:50:29.614Z,40.10
2023-03-03T01:52:59.305Z,40.20
2023-03-03T01:55:30.167Z,39.50
2023-03-03T01:58:00.660Z,39.50
2023-03-03T02:00:28.692Z,38.60
2023-03-03T02:02:58.618Z,37.40
2023-03-03T02:05:26.882Z,37.30
2023-03-03T02:07:55.289Z,37.60
2023-03-03T02:10:24.826Z,36.60
2023-03-03T02:12:55.406Z,36.40
2023-03-03T02:15:25.559Z,36.10
2023-03-03T02:17:54.355Z,35.30
2023-03-03T02:20:28.817Z,36.20
2023-03-03T02:22:59.679Z,38.10
2023-03-03T02:25:32.314Z,37.90
2023-03-03T02:28:01.793Z,36.80
2023-03-03T02:30:30.087Z,36.90
2023-03-03T02:32:58.239Z,36.50
2023-03-03T02:35:27.280Z,36.20
2023-03-03T02:37:56.478Z,36.10
2023-03-03T02:40:26.555Z,35.90
2023-03-03T02:42:54.664Z,35.70
2023-03-03T02:45:27.268Z,35.70
2023-03-03T02:47:55.266Z,35.70
2023-03-03T02:50:24.152Z,36.00
2023-03-03T02:52:53.277Z,35.90
2023-03-03T02:55:21.594Z,36.70
2023-03-03T02:57:50.956Z,38.40
2023-03-03T03:00:19.081Z,38.40
2023-03-03T03:02:48.486Z,39.70
2023-03-03T03:05:16.734Z,39.70
2023-03-03T03:07:44.683Z,39.70
2023-03-03T03:10:12.883Z,39.70
2023-03-03T03:12:42.665Z,38.90
2023-03-03T03:15:13.080Z,37.60
2023-03-03T03:17:43.613Z,37.30
2023-03-03T03:20:15.898Z,36.70
2023-03-03T03:22:46.876Z,37.50
2023-03-03T03:25:16.355Z,37.80
2023-03-03T03:27:44.384Z,37.30
2023-03-03T03:30:13.231Z,37.40
2023-03-03T03:32:41.847Z,38.20
2023-03-03T03:35:11.405Z,37.30
2023-03-03T03:37:41.031Z,38.20
2023-03-03T03:40:09.360Z,38.40
2023-03-03T03:42:39.329Z,38.20
2023-03-03T03:45:08.496Z,37.90
2023-03-03T03:47:36.684Z,39.40
2023-03-03T03:50:05.590Z,39.30
2023-03-03T03:52:34.107Z,41.00
2023-03-03T03:55:04.548Z,40.80
2023-03-03T03:57:32.734Z,41.00
2023-03-03T04:00:01.162Z,41.90
2023-03-03T04:02:30.857Z,40.60
2023-03-03T04:04:59.204Z,39.90
2023-03-03T04:07:27.551Z,39.90
2023-03-03T04:09:56.071Z,41.30
2023-03-03T04:12:25.539Z,40.00
2023-03-03T04:14:54.575Z,39.40
2023-03-03T04:17:24.891Z,38.80
2023-03-03T04:19:53.651Z,39.50
2023-03-03T04:22:22.383Z,38.30
2023-03-03T04:24:50.447Z,37.20
2023-03-03T04:27:18.957Z,38.40
2023-03-03T04:29:48.336Z,38.50
2023-03-03T04:32:18.529Z,38.00
2023-03-03T04:34:53.157Z,38.40
2023-03-03T04:37:27.548Z,38.60
2023-03-03T04:39:55.574Z,37.50
2023-03-03T04:42:23.927Z,37.10
2023-03-03T04:44:53.792Z,38.60
2023-03-03T04:47:21.850Z,38.80
2023-03-03T04:49:50.052Z,39.70
2023-03-03T04:52:18.068Z,40.10
2023-03-03T04:54:46.188Z,40.80
2023-03-03T04:57:14.785Z,40.70
2023-03-03T04:59:43.015Z,41.30
2023-03-03T05:02:12.973Z,40.40
2023-03-03T05:04:41.148Z,40.60
2023-03-03T05:07:09.693Z,40.30
2023-03-03T05:09:38.032Z,40.10
2023-03-03T05:12:06.158Z,40.00
2023-03-03T05:14:35.121Z,39.80
2023-03-03T05:17:04.676Z,38.90
2023-03-03T05:19:34.921Z,39.50
2023-03-03T05:22:03.548Z,39.30
2023-03-03T05:24:31.801Z,39.10
2023-03-03T05:27:00.627Z,38.80
2023-03-03T05:29:28.673Z,38.50
2023-03-03T05:31:56.737Z,37.90
2023-03-03T05:34:24.817Z,37.60
2023-03-03T05:36:54.525Z,37.10
2023-03-03T05:39:23.183Z,38.10
2023-03-03T05:41:51.136Z,38.60
2023-03-03T05:44:20.668Z,38.50
2023-03-03T05:46:48.983Z,38.20
2023-03-03T05:49:17.051Z,39.20
2023-03-03T05:51:45.153Z,39.20
2023-03-03T05:54:14.647Z,39.20
2023-03-03T05:56:42.843Z,39.40
2023-03-03T05:59:10.913Z,38.60
2023-03-03T06:01:39.110Z,39.30
2023-03-03T06:04:07.592Z,39.50
2023-03-03T06:06:35.615Z,39.50
2023-03-03T06:09:04.092Z,38.90
2023-03-03T06:11:33.420Z,40.00
2023-03-03T06:14:01.420Z,39.10
2023-03-03T06:16:29.830Z,39.20
2023-03-03T06:18:57.893Z,39.20
2023-03-03T06:21:26.402Z,40.40
2023-03-03T06:23:54.760Z,42.20
2023-03-03T06:26:23.506Z,42.30
2023-03-03T06:28:55.169Z,42.80
2023-03-03T06:31:23.180Z,42.80
2023-03-03T06:33:51.575Z,42.70
2023-03-03T06:36:19.723Z,43.30
2023-03-03T06:38:47.830Z,44.20
2023-03-03T06:41:15.916Z,44.50
2023-03-03T06:43:44.011Z,44.90
2023-03-03T06:46:13.403Z,44.80
2023-03-03T06:48:41.973Z,45.00
2023-03-03T06:51:18.975Z,45.50
2023-03-03T06:53:47.020Z,45.70
2023-03-03T06:56:14.912Z,45.90
2023-03-03T06:58:42.897Z,46.30
2023-03-03T07:01:15.840Z,46.90
2023-03-03T07:03:46.613Z,47.80
2023-03-03T07:06:20.015Z,48.50
2023-03-03T07:08:48.051Z,48.20
2023-03-03T07:11:19.449Z,47.60
2023-03-03T07:13:48.877Z,47.40
2023-03-03T07:16:18.964Z,46.20
2023-03-03T07:18:51.007Z,45.20
2023-03-03T07:21:19.957Z,44.50
2023-03-03T07:23:48.532Z,44.20
2023-03-03T07:26:18.282Z,43.10
2023-03-03T07:28:50.172Z,43.90
2023-03-03T07:31:37.259Z,45.70
2023-03-03T07:34:18.624Z,45.50
2023-03-03T07:36:47.103Z,44.60
2023-03-03T07:39:21.936Z,44.10
2023-03-03T07:41:50.123Z,43.70
2023-03-03T07:44:20.270Z,43.70
2023-03-03T07:46:50.590Z,43.60
2023-03-03T07:49:24.595Z,43.30
2023-03-03T07:51:54.487Z,43.20
2023-03-03T07:54:28.766Z,44.10
2023-03-03T07:56:57.320Z,44.20
2023-03-03T07:59:26.594Z,44.40
2023-03-03T08:01:56.652Z,44.30
2023-03-03T08:04:30.462Z,45.20
2023-03-03T08:06:59.048Z,45.00
2023-03-03T08:09:41.042Z,44.60
2023-03-03T08:12:27.127Z,45.40
2023-03-03T08:14:55.320Z,45.70
2023-03-03T08:17:24.716Z,45.90
2023-03-03T08:19:55.896Z,46.50
2023-03-03T08:22:30.706Z,46.70
2023-03-03T08:24:58.813Z,47.70
2023-03-03T08:27:26.837Z,47.20
2023-03-03T08:29:57.332Z,47.00
2023-03-03T08:32:25.718Z,46.60
2023-03-03T08:34:55.231Z,46.20
2023-03-03T08:37:23.378Z,45.30
2023-03-03T08:39:51.386Z,44.70
2023-03-03T08:42:19.557Z,44.40
2023-03-03T08:44:47.741Z,44.00
2023-03-03T08:47:15.726Z,43.20
2023-03-03T08:49:44.495Z,43.30
2023-03-03T08:52:13.956Z,42.20
2023-03-03T08:54:42.034Z,42.40
2023-03-03T08:57:10.174Z,41.60
2023-03-03T08:59:39.139Z,41.10
2023-03-03T09:02:07.444Z,40.90
2023-03-03T09:04:35.791Z,40.00
2023-03-03T09:07:03.906Z,40.00
2023-03-03T09:09:33.411Z,40.20
2023-03-03T09:12:09.110Z,39.70
2023-03-03T09:14:37.106Z,40.30
2023-03-03T09:17:16.521Z,40.40
2023-03-03T09:19:45.385Z,40.50
2023-03-03T09:22:19.972Z,40.90
2023-03-03T09:24:49.692Z,41.30
2023-03-03T09:27:20.665Z,40.70
2023-03-03T09:29:48.777Z,40.40
2023-03-03T09:32:23.339Z,39.10
2023-03-03T09:34:52.117Z,39.00
2023-03-03T09:37:23.405Z,39.70
2023-03-03T09:39:53.474Z,38.70
2023-03-03T09:42:29.931Z,37.70
2023-03-03T09:45:06.457Z,37.20
2023-03-03T09:47:47.543Z,36.60
2023-03-03T09:50:24.026Z,36.20
2023-03-03T09:52:57.685Z,35.40
2023-03-03T09:55:37.071Z,34.80
2023-03-03T09:58:17.620Z,35.70
2023-03-03T10:00:52.034Z,34.20
2023-03-03T10:03:39.800Z,34.30
2023-03-03T10:06:12.414Z,34.40
2023-03-03T10:08:49.601Z,32.80
2023-03-03T10:11:22.237Z,32.70
2023-03-03T10:14:00.567Z,33.20
2023-03-03T10:16:47.648Z,33.00
2023-03-03T10:19:24.895Z,31.80
2023-03-03T10:21:57.049Z,32.00
2023-03-03T10:24:31.677Z,32.10
2023-03-03T10:27:14.225Z,31.70
2023-03-03T10:29:54.300Z,31.60
2023-03-03T10:32:29.877Z,30.70
2023-03-03T10:35:06.997Z,31.50
2023-03-03T10:37:39.742Z,29.90
2023-03-03T10:40:17.992Z,30.00
2023-03-03T10:43:06.135Z,30.90
2023-03-03T10:45:53.865Z,30.40
2023-03-03T10:48:32.723Z,28.40
2023-03-03T10:51:05.437Z,29.40
2023-03-03T10:53:35.895Z,29.90
2023-03-03T10:56:17.151Z,28.40
2023-03-03T10:58:51.647Z,28.10
2023-03-03T11:01:24.940Z,28.60
2023-03-03T11:04:07.879Z,27.50
2023-03-03T11:06:41.033Z,26.40
2023-03-03T11:09:15.545Z,26.20
2023-03-03T11:11:48.941Z,26.20
2023-03-03T11:14:22.957Z,26.70
2023-03-03T11:16:58.909Z,26.10
2023-03-03T11:19:35.697Z,25.60
2023-03-03T11:22:11.055Z,25.40
2023-03-03T11:24:46.343Z,25.00
2023-03-03T11:27:22.058Z,24.50
2023-03-03T11:29:58.238Z,24.40
2023-03-03T11:32:32.235Z,25.10
2023-03-03T11:35:06.706Z,23.90
2023-03-03T11:37:38.152Z,23.70
2023-03-03T11:40:13.493Z,23.80
2023-03-03T11:42:46.939Z,23.70
2023-03-03T11:45:18.864Z,23.40
2023-03-03T11:47:51.079Z,23.70
2023-03-03T11:50:21.817Z,24.40
2023-03-03T11:52:53.832Z,23.30
2023-03-03T11:55:24.884Z,23.40
2023-03-03T11:57:57.109Z,23.90
2023-03-03T12:00:29.971Z,23.00
2023-03-03T12:03:10.538Z,23.10
2023-03-03T12:05:51.218Z,22.90
2023-03-03T12:08:23.668Z,23.40
2023-03-03T12:10:55.146Z,22.10
2023-03-03T12:13:26.277Z,22.10
2023-03-03T12:16:01.162Z,22.00
2023-03-03T12:18:44.349Z,22.20
2023-03-03T12:21:19.232Z,21.50
2023-03-03T12:23:57.881Z,20.90
2023-03-03T12:26:29.770Z,21.30
2023-03-03T12:29:00.227Z,21.70
2023-03-03T12:31:36.753Z,21.20
2023-03-03T12:34:07.867Z,21.30
2023-03-03T12:36:51.235Z,20.80
2023-03-03T12:39:34.782Z,20.40
2023-03-03T12:42:09.124Z,19.90
2023-03-03T12:44:39.688Z,20.00
2023-03-03T12:47:15.955Z,21.50
2023-03-03T12:49:52.068Z,21.40
2023-03-03T12:52:30.291Z,20.00
2023-03-03T12:55:05.110Z,20.50
2023-03-03T12:57:36.783Z,20.00
2023-03-03T13:00:16.074Z,20.10
2023-03-03T13:02:48.360Z,20.50
2023-03-03T13:05:20.096Z,21.30
2023-03-03T13:07:51.556Z,21.50
2023-03-03T13:10:23.029Z,20.90
2023-03-03T13:12:53.198Z,21.40
2023-03-03T13:15:31.761Z,20.30
2023-03-03T13:18:07.954Z,20.10
2023-03-03T13:20:41.246Z,20.30
2023-03-03T13:23:11.310Z,21.10
2023-03-03T13:25:49.627Z,21.10
2023-03-03T13:28:24.629Z,21.30
2023-03-03T13:30:56.916Z,21.20
2023-03-03T13:33:28.071Z,21.70
2023-03-03T13:35:57.784Z,21.40
2023-03-03T13:38:28.757Z,20.60
2023-03-03T13:41:02.928Z,20.80
2023-03-03T13:43:32.240Z,20.60
2023-03-03T13:46:05.611Z,21.00
2023-03-03T13:48:44.981Z,21.00
2023-03-03T13:51:20.732Z,20.10
2023-03-03T13:53:53.122Z,20.10
2023-03-03T13:56:32.064Z,19.60
2023-03-03T13:59:05.005Z,20.50
2023-03-03T14:01:44.293Z,20.50
2023-03-03T14:04:20.421Z,19.90
2023-03-03T14:06:53.725Z,19.70
2023-03-03T14:09:36.417Z,19.60
2023-03-03T14:12:07.870Z,20.00
2023-03-03T14:14:42.547Z,19.50
2023-03-03T14:17:16.404Z,19.50
2023-03-03T14:19:48.085Z,19.00
2023-03-03T14:22:23.691Z,20.20
2023-03-03T14:25:02.738Z,20.10
2023-03-03T14:27:35.845Z,19.60
2023-03-03T14:30:22.588Z,19.60
2023-03-03T14:32:59.960Z,19.60
2023-03-03T14:35:33.533Z,19.70
2023-03-03T14:38:03.329Z,19.60
2023-03-03T14:40:32.892Z,20.20
2023-03-03T14:43:02.137Z,19.70
2023-03-03T14:45:36.197Z,19.70
2023-03-03T14:48:12.172Z,19.80
2023-03-03T14:50:42.399Z,19.80
2023-03-03T14:53:13.888Z,19.50
2023-03-03T14:55:43.400Z,20.00
2023-03-03T14:58:28.429Z,19.10
2023-03-03T15:01:16.927Z,18.60
2023-03-03T15:03:49.386Z,19.10
2023-03-03T15:06:35.057Z,18.80
2023-03-03T15:09:21.872Z,18.90
2023-03-03T15:11:52.117Z,19.20
2023-03-03T15:14:22.039Z,19.50
2023-03-03T15:16:50.038Z,19.80
2023-03-03T15:19:48.470Z,19.10
2023-03-03T15:22:23.145Z,19.10
2023-03-03T15:24:55.997Z,19.60
2023-03-03T15:27:26.401Z,19.60
2023-03-03T15:29:58.488Z,19.30
2023-03-03T15:32:30.698Z,19.90
2023-03-03T15:35:07.740Z,19.80
2023-03-03T15:37:43.205Z,19.00
2023-03-03T15:40:18.190Z,20.10
2023-03-03T15:42:49.166Z,19.60
2023-03-03T15:45:22.621Z,19.60
2023-03-03T15:47:59.134Z,20.00
2023-03-03T15:50:32.726Z,20.10
2023-03-03T15:53:06.824Z,20.50
2023-03-03T15:55:42.585Z,20.70
2023-03-03T15:58:24.170Z,20.80
2023-03-03T16:01:00.447Z,20.80
2023-03-03T16:03:32.096Z,20.80
2023-03-03T16:06:04.753Z,21.10
2023-03-03T16:08:41.802Z,21.00
2023-03-03T16:11:11.774Z,21.50
2023-03-03T16:13:45.955Z,22.20
2023-03-03T16:16:29.508Z,21.90
2023-03-03T16:19:02.086Z,21.90
2023-03-03T16:21:39.271Z,22.00
2023-03-03T16:24:13.391Z,22.30
2023-03-03T16:26:47.462Z,22.80
2023-03-03T16:29:29.646Z,22.60
2023-03-03T16:31:59.436Z,22.80
2023-03-03T16:34:32.054Z,22.30
2023-03-03T16:37:05.473Z,22.30
2023-03-03T16:39:38.949Z,22.20
2023-03-03T16:42:13.702Z,22.00
2023-03-03T16:44:48.228Z,21.70
2023-03-03T16:47:25.183Z,22.30
2023-03-03T16:50:00.815Z,21.90
2023-03-03T16:52:34.913Z,22.40
2023-03-03T16:55:10.102Z,22.40
2023-03-03T16:57:45.697Z,22.30
2023-03-03T17:00:15.956Z,22.40
2023-03-03T17:02:54.801Z,22.10
2023-03-03T17:05:28.213Z,22.10
2023-03-03T17:08:04.789Z,22.30
2023-03-03T17:10:38.491Z,22.10
2023-03-03T17:13:15.677Z,22.50
2023-03-03T17:15:50.522Z,22.20
2023-03-03T17:18:22.060Z,22.10
2023-03-03T17:20:51.528Z,22.20
2023-03-03T17:23:25.551Z,22.00
2023-03-03T17:26:00.380Z,21.90
2023-03-03T17:28:34.124Z,21.50
2023-03-03T17:31:08.124Z,22.10
2023-03-03T17:33:44.199Z,22.00
2023-03-03T17:36:18.251Z,21.60
2023-03-03T17:38:50.516Z,22.20
2023-03-03T17:41:23.232Z,21.90
2023-03-03T17:43:56.076Z,22.00
2023-03-03T17:46:27.577Z,22.20
2023-03-03T17:49:13.620Z,22.20
2023-03-03T17:51:50.249Z,22.20
2023-03-03T17:54:29.327Z,22.40
2023-03-03T17:57:07.414Z,22.60
2023-03-03T17:59:48.646Z,22.60
2023-03-03T18:02:31.275Z,22.70
2023-03-03T18:05:18.037Z,22.00
2023-03-03T18:07:50.880Z,22.00
2023-03-03T18:10:38.482Z,22.30
2023-03-03T18:13:14.815Z,22.10
2023-03-03T18:16:09.030Z,22.20
2023-03-03T18:18:46.604Z,22.30
2023-03-03T18:21:16.850Z,22.40
2023-03-03T18:23:45.892Z,22.50
2023-03-03T18:26:30.450Z,22.60
2023-03-03T18:29:10.395Z,23.20
2023-03-03T18:31:46.876Z,22.50
2023-03-03T18:34:28.580Z,22.70
2023-03-03T18:36:57.569Z,24.10
2023-03-03T18:39:45.879Z,24.30
2023-03-03T18:42:30.574Z,24.80
2023-03-03T18:45:10.949Z,26.10
2023-03-03T18:47:57.656Z,26.90
2023-03-03T18:50:32.603Z,27.20
2023-03-03T18:53:11.749Z,28.10
2023-03-03T18:55:43.788Z,28.60
2023-03-03T18:58:27.327Z,28.80
2023-03-03T19:00:59.709Z,28.80
2023-03-03T19:03:29.631Z,28.50
2023-03-03T19:06:00.146Z,28.40
2023-03-03T19:08:29.829Z,27.90
2023-03-03T19:10:59.452Z,28.90
2023-03-03T19:13:41.805Z,28.80
2023-03-03T19:16:12.169Z,29.30
2023-03-03T19:18:59.934Z,29.80
2023-03-03T19:21:29.361Z,30.00
2023-03-03T19:24:00.169Z,29.90
2023-03-03T19:26:41.973Z,29.80
2023-03-03T19:29:30.671Z,29.50
2023-03-03T19:32:09.403Z,29.40
2023-03-03T19:34:40.396Z,29.20
2023-03-03T19:37:13.953Z,30.00
2023-03-03T19:39:50.927Z,30.00
2023-03-03T19:42:27.515Z,29.40
2023-03-03T19:45:04.071Z,29.20
2023-03-03T19:47:39.616Z,28.90
2023-03-03T19:50:13.646Z,28.60
2023-03-03T19:52:45.441Z,29.10
2023-03-03T19:55:20.272Z,28.20
2023-03-03T19:57:54.114Z,28.00
2023-03-03T20:00:26.842Z,29.30
2023-03-03T20:03:12.794Z,30.20
2023-03-03T20:05:46.172Z,30.40
2023-03-03T20:11:02.491Z,30.40
2023-03-03T20:13:46.162Z,31.20
2023-03-03T20:19:10.107Z,31.40
2023-03-03T20:21:40.756Z,30.70
2023-03-03T20:24:17.650Z,30.90
2023-03-03T20:26:44.496Z,31.80
2023-03-03T20:29:26.480Z,32.10
2023-03-03T20:31:58.342Z,32.50
2023-03-03T20:37:14.316Z,33.00
2023-03-03T20:39:49.128Z,32.70
2023-03-03T20:45:37.296Z,31.50
2023-03-03T20:48:16.109Z,31.60
2023-03-03T20:53:26.775Z,32.70
2023-03-03T20:56:00.514Z,32.60
2023-03-03T22:32:30.707Z,34.10
2023-03-03T22:34:58.770Z,34.20
2023-03-03T22:37:26.837Z,33.80
2023-03-03T22:39:54.811Z,34.40
2023-03-03T22:42:23.406Z,35.70
2023-03-03T22:44:51.338Z,37.70
2023-03-03T22:47:19.310Z,37.50
2023-03-03T22:49:48.715Z,36.20
2023-03-03T22:52:16.774Z,35.00
2023-03-03T22:54:46.115Z,35.30
2023-03-03T22:57:14.211Z,34.30
2023-03-03T22:59:42.163Z,34.20
2023-03-03T23:02:10.192Z,36.20
2023-03-03T23:04:40.672Z,37.00
2023-03-03T23:07:10.119Z,37.90
2023-03-03T23:09:38.132Z,37.70
2023-03-03T23:12:06.281Z,37.00
2023-03-03T23:14:34.329Z,36.00
2023-03-03T23:17:02.335Z,35.40
2023-03-03T23:19:30.558Z,36.00
2023-03-03T23:21:58.683Z,35.80
2023-03-03T23:24:28.005Z,36.50
2023-03-03T23:26:58.089Z,36.70
2023-03-03T23:29:26.306Z,36.50
2023-03-03T23:31:54.370Z,36.40
2023-03-03T23:34:22.401Z,36.90
2023-03-03T23:36:50.662Z,37.20
2023-03-03T23:39:20.015Z,36.70
2023-03-03T23:41:49.326Z,36.10
2023-03-03T23:44:17.532Z,35.90
2023-03-03T23:46:45.533Z,35.70
2023-03-03T23:49:13.584Z,36.10
2023-03-03T23:51:42.793Z,35.50
2023-03-03T23:54:10.878Z,35.50
2023-03-03T23:56:38.857Z,36.30
2023-03-03T23:59:08.166Z,36.90
